Time;durP1;ratioP1;P1;durP2;ratioP2;P2;SDS_P1;SDS_P2;PMS_P1;PMS_P2;Temp;Humidity;BMP_temperature;BMP_pressure;BME280_temperature;BME280_humidity;BME280_pressure;Samples;Min_cycle;Max_cycle;Signal;HPM_P1;HPM_P2
2022/07/11 00:00:13;;;;;;;6.30;5.00;;;19.80;1.00;;;;;;5022783;28;20419;-74
2022/07/11 00:02:39;;;;;;;6.37;4.50;;;19.80;1.00;;;;;;5029220;28;20186;-75
2022/07/11 00:05:05;;;;;;;6.17;5.40;;;19.80;1.00;;;;;;5031500;28;20499;-74
2022/07/11 00:07:31;;;;;;;6.70;4.90;;;19.80;1.00;;;;;;5020524;28;20978;-74
2022/07/11 00:09:57;;;;;;;5.70;4.67;;;19.80;1.00;;;;;;5011542;28;20615;-74
2022/07/11 00:12:26;;;;;;;5.80;4.70;;;;;;;;;;5009970;28;20652;-74
2022/07/11 00:14:53;;;;;;;8.30;4.70;;;19.80;1.00;;;;;;4993507;28;20508;-74
2022/07/11 00:17:19;;;;;;;8.37;5.40;;;;;;;;;;5010727;28;20428;-75
2022/07/11 00:19:45;;;;;;;6.90;5.10;;;19.80;1.00;;;;;;5008237;28;20770;-74
2022/07/11 00:22:11;;;;;;;6.83;4.90;;;19.60;1.00;;;;;;5008962;28;20257;-74
2022/07/11 00:24:37;;;;;;;7.20;4.70;;;19.70;1.00;;;;;;5011195;28;20517;-74
2022/07/11 00:27:02;;;;;;;5.77;4.80;;;19.70;1.00;;;;;;5010762;28;20281;-74
2022/07/11 00:29:29;;;;;;;5.87;5.27;;;19.70;1.00;;;;;;4998840;28;20248;-74
2022/07/11 00:31:55;;;;;;;6.50;4.97;;;;;;;;;;4999375;28;20216;-74
2022/07/11 00:34:21;;;;;;;6.93;4.60;;;19.60;1.00;;;;;;5029943;28;20700;-74
2022/07/11 00:36:46;;;;;;;7.03;4.90;;;19.60;1.00;;;;;;5029531;28;20556;-74
2022/07/11 00:39:12;;;;;;;5.67;5.03;;;19.60;1.00;;;;;;5030248;28;20203;-74
2022/07/11 00:41:37;;;;;;;8.30;5.20;;;19.50;1.00;;;;;;5029562;28;20520;-74
2022/07/11 00:44:03;;;;;;;6.73;5.03;;;19.50;1.00;;;;;;5030343;28;20204;-73
2022/07/11 00:46:29;;;;;;;5.40;4.90;;;19.50;1.00;;;;;;5029489;28;20201;-74
2022/07/11 00:48:56;;;;;;;6.20;5.30;;;21.30;1.00;;;;;;5030477;28;20628;-74
2022/07/11 00:51:23;;;;;;;6.33;5.17;;;19.50;1.00;;;;;;5029130;28;20408;-74
2022/07/11 00:53:51;;;;;;;6.83;5.00;;;19.50;1.00;;;;;;5029476;28;20788;-74
2022/07/11 00:56:21;;;;;;;6.03;5.33;;;19.40;1.00;;;;;;5030085;28;20494;-74
2022/07/11 00:58:48;;;;;;;7.13;5.40;;;19.40;1.00;;;;;;5022133;28;20667;-74
2022/07/11 01:01:14;;;;;;;6.00;4.90;;;19.30;1.00;;;;;;5007736;28;20479;-74
2022/07/11 01:03:39;;;;;;;7.30;5.40;;;19.30;1.00;;;;;;5009727;28;20414;-74
2022/07/11 01:06:05;;;;;;;7.73;5.10;;;19.30;1.00;;;;;;5009582;28;20261;-74
2022/07/11 01:08:32;;;;;;;7.10;5.67;;;19.10;1.00;;;;;;5009612;28;20202;-74
2022/07/11 01:11:12;;;;;;;6.97;5.80;;;19.20;1.00;;;;;;4991407;28;21025;-74
2022/07/11 01:13:39;;;;;;;7.20;5.70;;;19.30;1.00;;;;;;5009552;28;20651;-74
2022/07/11 01:16:16;;;;;;;6.13;5.37;;;19.30;1.00;;;;;;5009609;28;20413;-74
2022/07/11 01:18:46;;;;;;;5.67;5.03;;;19.30;1.00;;;;;;5009679;28;20506;-75
2022/07/11 01:21:24;;;;;;;6.13;5.40;;;19.40;1.00;;;;;;4991171;28;20421;-74
2022/07/11 01:23:51;;;;;;;6.10;5.30;;;19.40;1.00;;;;;;5009202;28;20425;-74
2022/07/11 01:26:19;;;;;;;8.63;5.67;;;19.30;1.00;;;;;;5009713;28;20437;-74
2022/07/11 01:28:45;;;;;;;5.80;5.20;;;19.40;1.00;;;;;;4989197;28;20460;-74
2022/07/11 01:31:12;;;;;;;6.90;4.90;;;19.40;1.00;;;;;;5012688;28;20503;-74
2022/07/11 01:33:37;;;;;;;6.50;5.53;;;19.30;1.00;;;;;;5028908;28;20620;-74
2022/07/11 01:36:03;;;;;;;6.57;5.37;;;19.40;1.00;;;;;;4995111;28;20447;-75
2022/07/11 01:38:29;;;;;;;9.10;6.00;;;19.40;1.00;;;;;;5009227;28;20170;-74
2022/07/11 01:40:55;;;;;;;7.33;5.00;;;19.40;1.00;;;;;;4991766;28;20220;-74
2022/07/11 01:43:21;;;;;;;6.57;5.60;;;19.40;1.00;;;;;;5009209;28;20194;-74
2022/07/11 01:45:49;;;;;;;6.90;4.73;;;19.40;1.00;;;;;;5009482;28;20444;-75
2022/07/11 01:48:15;;;;;;;10.67;5.53;;;19.40;1.00;;;;;;5008664;28;20194;-74
2022/07/11 01:50:40;;;;;;;7.77;5.57;;;19.40;1.00;;;;;;5009074;28;20420;-74
2022/07/11 01:53:06;;;;;;;7.60;5.30;;;19.30;1.00;;;;;;5007990;28;20424;-74
2022/07/11 01:55:31;;;;;;;6.63;5.60;;;19.30;1.00;;;;;;5009584;28;20174;-74
2022/07/11 01:57:57;;;;;;;6.00;5.40;;;19.40;1.00;;;;;;5008787;28;20186;-76
2022/07/11 02:00:22;;;;;;;6.33;5.37;;;19.40;1.00;;;;;;5011419;28;20331;-74
2022/07/11 02:02:48;;;;;;;5.90;5.13;;;19.40;1.00;;;;;;5005705;28;20264;-74
2022/07/11 02:05:13;;;;;;;6.93;5.27;;;19.60;1.00;;;;;;5009782;28;20170;-75
2022/07/11 02:10:28;;;;;;;7.17;5.03;;;19.40;1.00;;;;;;5009590;28;20555;-75
2022/07/11 02:12:55;;;;;;;6.50;5.80;;;19.30;1.00;;;;;;5008074;28;20440;-74
2022/07/11 02:15:21;;;;;;;7.37;5.53;;;19.30;1.00;;;;;;4991575;28;20416;-74
2022/07/11 02:17:46;;;;;;;8.77;5.60;;;19.30;1.00;;;;;;5007938;28;20433;-74
2022/07/11 02:20:12;;;;;;;5.80;5.10;;;19.30;1.00;;;;;;4991977;28;20174;-74
2022/07/11 02:22:38;;;;;;;6.47;5.50;;;;;;;;;;5006671;28;20257;-74
2022/07/11 02:25:04;;;;;;;10.97;5.20;;;19.30;1.00;;;;;;5009314;28;20257;-74
2022/07/11 02:27:29;;;;;;;6.53;5.77;;;19.40;1.00;;;;;;5008412;28;20198;-74
2022/07/11 02:29:55;;;;;;;6.17;5.33;;;19.40;1.00;;;;;;5019603;28;20188;-74
2022/07/11 02:32:20;;;;;;;7.40;5.90;;;20.90;1.00;;;;;;5027168;28;20690;-74
2022/07/11 02:34:45;;;;;;;5.53;5.00;;;19.60;1.00;;;;;;5027239;28;20209;-74
2022/07/11 02:37:11;;;;;;;8.57;5.63;;;19.30;1.00;;;;;;5000730;28;20668;-74
2022/07/11 02:39:36;;;;;;;7.17;6.20;;;19.20;1.00;;;;;;5008734;28;20202;-75
2022/07/11 02:42:02;;;;;;;6.43;5.83;;;19.10;1.00;;;;;;4989980;28;20181;-74
2022/07/11 02:44:28;;;;;;;7.23;5.50;;;19.00;1.00;;;;;;5008965;28;20186;-74
2022/07/11 02:46:54;;;;;;;7.47;5.37;;;;;;;;;;4990249;28;20197;-74
2022/07/11 02:49:20;;;;;;;6.70;6.00;;;;;;;;;;5008527;28;20184;-74
2022/07/11 02:51:46;;;;;;;6.30;5.70;;;18.60;1.00;;;;;;4989373;28;20776;-74
2022/07/11 02:54:12;;;;;;;8.87;6.17;;;18.60;1.00;;;;;;5008281;28;20245;-75
2022/07/11 02:56:37;;;;;;;8.80;6.40;;;18.80;1.00;;;;;;5008123;28;20429;-74
2022/07/11 02:59:03;;;;;;;9.30;6.17;;;18.40;1.00;;;;;;5012555;28;20655;-74
2022/07/11 03:01:28;;;;;;;7.70;5.80;;;18.40;1.00;;;;;;5027414;28;20609;-75
2022/07/11 03:03:54;;;;;;;6.20;5.40;;;18.40;1.00;;;;;;5028173;28;20486;-74
2022/07/11 03:06:19;;;;;;;7.90;5.80;;;20.90;1.00;;;;;;5027996;28;20568;-74
2022/07/11 03:08:45;;;;;;;6.13;5.47;;;18.30;1.00;;;;;;5008012;28;20312;-74
2022/07/11 03:11:10;;;;;;;5.90;5.30;;;18.30;1.00;;;;;;5007644;28;20182;-74
2022/07/11 03:13:36;;;;;;;7.13;5.60;;;18.30;1.00;;;;;;5008556;28;20280;-74
2022/07/11 03:16:01;;;;;;;6.40;5.60;;;18.30;1.00;;;;;;5008376;28;20490;-74
2022/07/11 03:18:27;;;;;;;7.67;5.50;;;18.20;1.00;;;;;;5006400;28;20590;-74
2022/07/11 03:20:53;;;;;;;6.97;6.17;;;18.30;1.00;;;;;;5005949;28;20240;-74
2022/07/11 03:23:19;;;;;;;6.67;5.97;;;;;;;;;;5007201;28;20538;-74
2022/07/11 03:25:45;;;;;;;7.40;5.73;;;;;;;;;;5008312;28;20704;-74
2022/07/11 03:28:10;;;;;;;6.23;5.40;;;18.10;1.00;;;;;;5007972;28;20213;-74
2022/07/11 03:30:36;;;;;;;5.93;5.33;;;18.00;1.00;;;;;;5026578;28;20284;-75
2022/07/11 03:33:01;;;;;;;6.30;5.53;;;17.90;1.00;;;;;;5026520;28;20534;-74
2022/07/11 03:35:42;;;;;;;7.13;6.23;;;17.80;1.00;;;;;;5011722;28;20612;-75
2022/07/11 03:38:09;;;;;;;7.40;6.20;;;17.60;1.00;;;;;;5030420;28;20178;-74
2022/07/11 03:40:35;;;;;;;6.93;6.07;;;17.60;1.00;;;;;;5031446;28;20786;-74
2022/07/11 03:43:01;;;;;;;7.93;6.07;;;17.60;1.00;;;;;;5017776;28;20409;-74
2022/07/11 03:45:27;;;;;;;6.67;5.93;;;17.50;1.00;;;;;;5012353;28;20261;-75
2022/07/11 03:47:53;;;;;;;8.13;5.83;;;17.40;1.00;;;;;;5010818;28;20440;-74
2022/07/11 03:50:18;;;;;;;6.90;6.10;;;17.30;1.00;;;;;;5012070;28;20879;-74
2022/07/11 03:52:44;;;;;;;6.60;5.90;;;17.30;1.00;;;;;;4991610;28;20171;-74
2022/07/11 03:55:10;;;;;;;7.10;6.00;;;17.60;1.00;;;;;;5012069;28;20627;-74
2022/07/11 03:57:36;;;;;;;6.83;6.00;;;17.40;1.00;;;;;;5011249;28;20270;-75
2022/07/11 04:00:04;;;;;;;6.93;5.63;;;17.40;1.00;;;;;;5002527;28;20560;-74
2022/07/11 04:02:30;;;;;;;6.30;5.80;;;17.40;1.00;;;;;;4992273;28;20410;-74
2022/07/11 04:04:56;;;;;;;8.00;6.20;;;18.60;1.00;;;;;;5011121;28;20753;-74
2022/07/11 04:07:21;;;;;;;7.20;6.50;;;17.50;1.00;;;;;;5009921;28;20281;-74
2022/07/11 04:09:47;;;;;;;7.40;6.03;;;17.60;1.00;;;;;;5011642;28;20175;-74
2022/07/11 04:12:13;;;;;;;9.17;6.33;;;;;;;;;;5010330;28;20178;-74
2022/07/11 04:14:38;;;;;;;6.60;6.00;;;17.80;1.00;;;;;;5011739;28;20218;-74
2022/07/11 04:17:04;;;;;;;7.00;6.30;;;17.90;1.00;;;;;;5010915;28;20197;-75
2022/07/11 04:19:30;;;;;;;7.87;6.27;;;17.90;1.00;;;;;;5011294;28;20633;-74
2022/07/11 04:21:56;;;;;;;6.93;6.17;;;17.90;1.00;;;;;;4991854;28;20421;-73
2022/07/11 04:24:21;;;;;;;6.97;6.17;;;18.00;1.00;;;;;;5010952;28;20630;-74
2022/07/11 04:26:47;;;;;;;9.80;6.70;;;18.10;1.00;;;;;;5010970;28;20464;-75
2022/07/11 04:29:13;;;;;;;8.90;6.57;;;18.10;1.00;;;;;;5017025;28;20166;-74
2022/07/11 04:31:38;;;;;;;9.90;6.50;;;18.10;1.00;;;;;;5029535;28;20641;-74
2022/07/11 04:34:04;;;;;;;7.80;7.00;;;18.10;1.00;;;;;;5030582;28;20201;-74
2022/07/11 04:36:30;;;;;;;8.10;6.13;;;18.10;1.00;;;;;;5014751;28;20201;-74
2022/07/11 04:38:55;;;;;;;6.97;6.13;;;18.20;1.00;;;;;;4992388;28;20171;-74
2022/07/11 04:41:20;;;;;;;10.30;7.07;;;18.20;1.00;;;;;;4992547;28;20178;-73
2022/07/11 04:43:46;;;;;;;8.90;6.50;;;18.30;1.00;;;;;;5010869;28;20637;-75
2022/07/11 04:46:12;;;;;;;8.50;6.87;;;18.40;1.00;;;;;;5010366;28;20186;-74
2022/07/11 04:48:38;;;;;;;6.93;6.20;;;18.40;1.00;;;;;;5010718;28;20182;-74
2022/07/11 04:51:05;;;;;;;8.40;6.50;;;18.50;1.00;;;;;;4991718;28;20175;-74
2022/07/11 04:53:30;;;;;;;11.43;7.10;;;18.50;1.00;;;;;;5009775;28;20605;-74
2022/07/11 04:55:56;;;;;;;9.70;7.00;;;18.60;1.00;;;;;;5010704;28;20409;-74
2022/07/11 04:58:21;;;;;;;8.60;6.30;;;18.70;1.00;;;;;;5010390;28;20566;-74
2022/07/11 05:00:47;;;;;;;7.47;6.77;;;18.80;1.00;;;;;;5028495;28;20273;-74
2022/07/11 05:03:14;;;;;;;8.27;6.90;;;;;;;;;;5028810;28;20569;-74
2022/07/11 05:05:40;;;;;;;7.70;6.93;;;18.90;1.00;;;;;;5029877;28;20174;-74
2022/07/11 05:08:06;;;;;;;7.50;6.77;;;18.90;1.00;;;;;;5014720;28;20464;-74
2022/07/11 05:10:33;;;;;;;9.70;6.57;;;18.90;1.00;;;;;;4992634;28;20198;-75
2022/07/11 05:12:59;;;;;;;9.40;6.50;;;18.90;1.00;;;;;;4991422;28;20190;-74
2022/07/11 05:15:25;;;;;;;9.43;7.10;;;19.00;1.00;;;;;;5010345;28;20528;-74
2022/07/11 05:17:50;;;;;;;9.07;7.33;;;19.00;1.00;;;;;;4991577;28;20285;-74
2022/07/11 05:20:16;;;;;;;7.97;7.17;;;19.00;1.00;;;;;;4992434;28;20488;-74
2022/07/11 05:22:42;;;;;;;8.60;6.90;;;19.00;1.00;;;;;;5007776;28;20377;-74
2022/07/11 05:25:08;;;;;;;8.97;6.90;;;18.90;1.00;;;;;;5010784;28;20201;-74
2022/07/11 05:27:34;;;;;;;9.40;7.40;;;19.00;1.00;;;;;;5009556;28;20833;-74
2022/07/11 05:29:59;;;;;;;9.67;7.30;;;19.00;1.00;;;;;;5021854;28;20263;-74
2022/07/11 05:32:25;;;;;;;9.00;7.60;;;19.10;1.00;;;;;;5010596;28;20263;-74
2022/07/11 05:34:50;;;;;;;9.80;7.07;;;19.10;1.00;;;;;;5011168;28;20205;-73
2022/07/11 05:37:16;;;;;;;10.23;7.10;;;19.20;1.00;;;;;;5028265;28;20200;-73
2022/07/11 05:39:41;;;;;;;8.00;6.70;;;20.10;1.00;;;;;;5011880;28;20189;-75
2022/07/11 05:42:07;;;;;;;8.10;7.30;;;20.90;1.00;;;;;;5014218;28;20181;-74
2022/07/11 05:44:33;;;;;;;12.50;7.03;;;19.40;1.00;;;;;;5010039;28;20163;-74
2022/07/11 05:47:00;;;;;;;8.20;7.20;;;19.40;1.00;;;;;;5009079;28;20284;-74
2022/07/11 05:49:26;;;;;;;8.47;6.83;;;19.50;1.00;;;;;;5009428;28;20166;-75
2022/07/11 05:51:51;;;;;;;11.90;6.73;;;19.50;1.00;;;;;;5008041;28;20488;-74
2022/07/11 05:54:17;;;;;;;8.57;6.73;;;19.70;1.00;;;;;;5009384;28;20297;-75
2022/07/11 05:56:42;;;;;;;9.53;7.00;;;19.80;1.00;;;;;;4991432;28;20190;-74
2022/07/11 05:59:08;;;;;;;14.03;6.80;;;20.20;1.00;;;;;;4995877;28;20185;-74
2022/07/11 06:01:34;;;;;;;7.50;6.07;;;20.10;1.00;;;;;;5011720;28;20237;-74
2022/07/11 06:04:00;;;;;;;8.90;6.20;;;20.30;1.00;;;;;;5008839;28;20257;-75
2022/07/11 06:06:26;;;;;;;7.47;6.40;;;21.60;1.00;;;;;;5008635;28;20831;-74
2022/07/11 06:08:53;;;;;;;11.93;6.17;;;20.50;1.00;;;;;;5009121;28;20215;-74
2022/07/11 06:11:19;;;;;;;7.60;6.80;;;20.60;1.00;;;;;;5008653;28;20467;-74
2022/07/11 06:13:45;;;;;;;9.17;6.40;;;20.60;1.00;;;;;;5009089;28;20453;-74
2022/07/11 06:16:11;;;;;;;8.33;6.53;;;20.60;1.00;;;;;;5008645;28;20174;-75
2022/07/11 06:18:38;;;;;;;8.80;6.30;;;20.60;1.00;;;;;;5008839;28;20162;-75
2022/07/11 06:21:05;;;;;;;7.47;5.70;;;20.80;1.00;;;;;;5008205;28;20786;-74
2022/07/11 06:23:31;;;;;;;7.83;6.10;;;21.00;1.00;;;;;;5008607;28;20496;-74
2022/07/11 06:25:57;;;;;;;7.50;6.10;;;21.40;1.00;;;;;;5009472;28;20409;-74
2022/07/11 06:28:23;;;;;;;9.00;5.83;;;21.40;1.00;;;;;;5008845;28;20761;-74
2022/07/11 06:30:49;;;;;;;8.15;6.18;;;21.60;1.00;;;;;;5026697;28;20416;-75
2022/07/11 06:33:18;;;;;;;10.73;6.20;;;21.70;1.00;;;;;;5026959;28;20239;-75
2022/07/11 06:35:45;;;;;;;8.20;5.60;;;;;;;;;;5012969;28;20437;-76
2022/07/11 06:38:11;;;;;;;7.40;5.77;;;22.00;1.00;;;;;;5007674;28;20926;-75
2022/07/11 06:40:37;;;;;;;11.97;6.23;;;22.00;1.00;;;;;;5009622;28;20495;-75
2022/07/11 06:43:02;;;;;;;7.77;6.00;;;21.90;1.00;;;;;;5008107;28;20400;-75
2022/07/11 06:45:28;;;;;;;9.97;6.10;;;22.00;1.00;;;;;;5009461;28;20174;-74
2022/07/11 06:47:53;;;;;;;6.30;4.97;;;22.10;1.00;;;;;;5007983;28;20668;-75
2022/07/11 06:50:19;;;;;;;7.00;5.57;;;22.30;1.00;;;;;;5009325;28;20177;-75
2022/07/11 06:52:47;;;;;;;7.50;5.80;;;;;;;;;;5007034;28;20166;-75
2022/07/11 06:55:12;;;;;;;9.20;5.87;;;22.60;1.00;;;;;;5009261;28;20421;-75
2022/07/11 06:57:38;;;;;;;6.63;4.60;;;;;;;;;;5008400;28;20777;-75
2022/07/11 07:00:06;;;;;;;9.23;5.80;;;23.10;1.00;;;;;;5021302;28;20209;-74
2022/07/11 07:02:31;;;;;;;11.57;5.43;;;23.20;1.00;;;;;;5027311;28;20180;-76
2022/07/11 07:05:00;;;;;;;6.83;5.00;;;23.10;1.00;;;;;;5028918;28;20826;-75
2022/07/11 07:07:27;;;;;;;9.67;5.17;;;23.00;1.00;;;;;;5018847;28;20217;-75
2022/07/11 07:09:53;;;;;;;8.33;5.40;;;23.00;1.00;;;;;;5009533;28;20825;-74
2022/07/11 07:12:23;;;;;;;12.53;5.33;;;23.00;1.00;;;;;;5011601;28;20802;-75
2022/07/11 07:14:49;;;;;;;11.93;5.23;;;22.90;1.00;;;;;;5012418;28;20448;-74
2022/07/11 07:17:15;;;;;;;6.00;5.37;;;22.80;1.00;;;;;;5012230;28;20433;-75
2022/07/11 07:19:40;;;;;;;7.40;5.07;;;22.70;1.00;;;;;;5009915;28;20743;-74
2022/07/11 07:22:06;;;;;;;11.50;5.30;;;22.90;1.00;;;;;;5010536;28;20344;-75
2022/07/11 07:24:32;;;;;;;7.63;5.47;;;22.60;1.00;;;;;;5012707;28;20217;-75
2022/07/11 07:26:58;;;;;;;7.43;5.70;;;22.50;1.00;;;;;;5012214;28;20215;-75
2022/07/11 07:29:26;;;;;;;7.87;5.90;;;22.60;1.00;;;;;;5018789;28;20407;-75
2022/07/11 07:31:52;;;;;;;5.90;5.30;;;22.80;1.00;;;;;;5030970;28;20268;-74
2022/07/11 07:34:18;;;;;;;10.43;5.37;;;22.90;1.00;;;;;;5031803;28;20455;-76
2022/07/11 07:36:44;;;;;;;5.80;4.90;;;;;;;;;;5031334;28;20561;-75
2022/07/11 07:39:10;;;;;;;8.33;5.80;;;23.80;1.00;;;;;;5032084;28;21190;-75
2022/07/11 07:41:35;;;;;;;8.13;5.93;;;24.10;1.00;;;;;;5031023;28;20174;-75
2022/07/11 07:44:02;;;;;;;8.43;6.33;;;;;;;;;;5031985;28;20306;-75
2022/07/11 07:46:28;;;;;;;11.43;6.60;;;24.30;1.00;;;;;;5031651;28;20208;-75
2022/07/11 07:48:53;;;;;;;11.10;5.60;;;24.50;1.00;;;;;;5013912;28;20443;-75
2022/07/11 07:51:20;;;;;;;5.83;5.23;;;24.80;1.00;;;;;;5018669;28;20428;-76
2022/07/11 07:53:46;;;;;;;8.10;5.13;;;24.90;1.00;;;;;;5011372;28;20293;-75
2022/07/11 07:56:11;;;;;;;9.90;5.70;;;25.00;1.00;;;;;;4994252;28;20721;-75
2022/07/11 07:58:38;;;;;;;7.20;5.77;;;25.30;1.00;;;;;;5012011;28;20334;-75
2022/07/11 08:03:48;;;;;;;12.43;6.33;;;25.50;1.00;;;;;;5011548;28;20652;-75
2022/07/11 08:06:14;;;;;;;9.33;5.20;;;;;;;;;;5011237;28;20405;-75
2022/07/11 08:08:40;;;;;;;8.80;5.23;;;25.90;1.00;;;;;;5010970;28;20225;-75
2022/07/11 08:11:06;;;;;;;10.10;6.23;;;;;;;;;;5010915;28;21106;-75
2022/07/11 08:13:31;;;;;;;8.07;5.57;;;26.00;1.00;;;;;;5011426;28;20205;-75
2022/07/11 08:15:57;;;;;;;9.67;6.03;;;;;;;;;;5011974;28;20181;-75
2022/07/11 08:18:23;;;;;;;7.97;5.77;;;26.40;1.00;;;;;;4993167;28;20609;-76
2022/07/11 08:20:48;;;;;;;9.77;5.90;;;27.00;1.00;;;;;;5011210;28;20666;-75
2022/07/11 08:23:14;;;;;;;9.00;5.53;;;27.00;1.00;;;;;;5010410;28;20538;-75
2022/07/11 08:25:40;;;;;;;9.30;5.20;;;27.00;1.00;;;;;;4993720;28;20248;-75
2022/07/11 08:28:06;;;;;;;8.53;5.30;;;27.00;1.00;;;;;;5010612;28;20202;-75
2022/07/11 08:30:31;;;;;;;9.97;5.83;;;27.00;1.00;;;;;;5026991;28;20404;-76
2022/07/11 08:32:57;;;;;;;8.60;5.30;;;26.90;1.00;;;;;;5028846;28;20257;-75
2022/07/11 08:35:23;;;;;;;7.90;4.10;;;26.70;1.00;;;;;;5007412;28;20186;-75
2022/07/11 08:37:49;;;;;;;8.00;4.60;;;26.40;1.00;;;;;;5009514;28;20197;-75
2022/07/11 08:40:14;;;;;;;8.10;4.80;;;26.40;1.00;;;;;;5011426;28;20169;-75
2022/07/11 08:42:42;;;;;;;8.67;4.90;;;26.30;1.00;;;;;;5010568;28;20170;-76
2022/07/11 08:45:17;;;;;;;7.77;4.57;;;26.70;1.00;;;;;;4993975;28;20174;-75
2022/07/11 08:47:44;;;;;;;9.97;4.70;;;27.40;1.00;;;;;;5010190;28;20204;-76
2022/07/11 08:50:11;;;;;;;6.43;4.83;;;27.80;1.00;;;;;;5011681;28;20173;-75
2022/07/11 08:52:37;;;;;;;6.27;4.27;;;27.80;1.00;;;;;;5009077;28;20370;-75
2022/07/11 08:55:06;;;;;;;8.03;4.10;;;27.70;1.00;;;;;;5011700;28;20198;-75
2022/07/11 08:57:34;;;;;;;8.07;4.67;;;27.50;1.00;;;;;;5010702;28;20661;-75
2022/07/11 09:00:00;;;;;;;5.80;4.47;;;27.70;1.00;;;;;;5022292;28;20355;-75
2022/07/11 09:02:27;;;;;;;7.17;4.90;;;28.40;1.00;;;;;;5029386;28;20666;-75
2022/07/11 09:04:52;;;;;;;9.00;4.50;;;29.30;1.00;;;;;;5012530;28;20238;-75
2022/07/11 09:07:18;;;;;;;6.67;4.60;;;29.30;1.00;;;;;;5021506;28;20190;-76
2022/07/11 09:09:44;;;;;;;8.17;4.80;;;29.00;1.00;;;;;;5011126;28;20513;-75
2022/07/11 09:12:16;;;;;;;8.50;4.30;;;28.80;1.00;;;;;;5009735;28;20615;-75
2022/07/11 09:14:47;;;;;;;9.32;4.68;;;29.40;1.00;;;;;;5010435;28;20204;-75
2022/07/11 09:17:12;;;;;;;8.55;4.90;;;29.80;1.00;;;;;;4991758;28;20213;-76
2022/07/11 09:19:39;;;;;;;5.18;3.95;;;29.60;1.00;;;;;;5007868;28;20166;-75
2022/07/11 09:25:24;;;;;;;7.65;5.10;;;29.40;1.00;;;;;;5010908;28;20257;-75
2022/07/11 09:27:53;;;;;;;6.45;4.50;;;29.00;1.00;;;;;;5009885;28;20277;-75
2022/07/11 09:30:23;;;;;;;5.90;4.10;;;28.80;1.00;;;;;;5006584;28;20178;-76
2022/07/11 09:32:53;;;;;;;9.20;4.07;;;28.70;1.00;;;;;;5027433;28;20688;-75
2022/07/11 09:35:19;;;;;;;12.70;4.20;;;29.60;1.00;;;;;;5030338;28;20185;-76
2022/07/11 09:37:45;;;;;;;8.90;4.65;;;30.00;1.00;;;;;;5028274;28;20625;-75
2022/07/11 09:40:12;;;;;;;6.45;4.45;;;30.00;1.00;;;;;;5029918;28;20170;-75
2022/07/11 09:42:52;;;;;;;5.13;4.15;;;30.10;1.00;;;;;;5010713;28;20227;-75
2022/07/11 09:45:20;;;;;;;7.40;4.30;;;30.40;1.00;;;;;;5029867;28;20255;-76
2022/07/11 09:47:48;;;;;;;6.15;4.25;;;30.50;1.00;;;;;;5028765;28;20297;-75
2022/07/11 09:50:17;;;;;;;9.55;4.10;;;30.40;1.00;;;;;;5029826;28;20195;-75
2022/07/11 09:53:07;;;;;;;7.55;4.53;;;30.30;1.00;;;;;;5018150;28;20170;-75
2022/07/11 09:55:41;;;;;;;5.68;5.07;;;30.00;1.00;;;;;;5010320;28;20436;-75
2022/07/11 09:58:09;;;;;;;7.68;4.40;;;30.10;1.00;;;;;;5009254;28;20201;-75
2022/07/11 10:00:36;;;;;;;6.97;4.80;;;30.40;1.00;;;;;;5009918;28;20179;-75
2022/07/11 10:03:03;;;;;;;9.40;4.82;;;30.60;1.00;;;;;;5007692;28;20158;-75
2022/07/11 10:05:30;;;;;;;8.18;5.35;;;29.80;1.00;;;;;;5009438;28;20240;-76
2022/07/11 10:07:57;;;;;;;4.93;3.90;;;29.50;1.00;;;;;;5008153;28;20200;-75
2022/07/11 10:10:23;;;;;;;7.07;3.88;;;29.70;1.00;;;;;;4991970;28;20166;-75
2022/07/11 10:12:51;;;;;;;4.95;3.90;;;29.70;1.00;;;;;;5008401;28;20188;-75
2022/07/11 10:15:24;;;;;;;8.40;3.95;;;29.70;1.00;;;;;;5009575;28;20202;-75
2022/07/11 10:18:05;;;;;;;9.40;4.57;;;30.20;1.00;;;;;;5008204;28;20193;-75
2022/07/11 10:20:44;;;;;;;7.22;4.13;;;31.70;1.00;;;;;;5009381;28;20625;-76
2022/07/11 10:23:24;;;;;;;10.88;3.85;;;33.90;1.00;;;;;;5007504;28;20671;-75
2022/07/11 10:26:08;;;;;;;7.18;3.55;;;33.60;1.00;;;;;;5009304;28;20209;-75
2022/07/11 10:28:52;;;;;;;4.75;3.30;;;33.10;1.00;;;;;;5009141;28;20174;-76
2022/07/11 10:31:23;;;;;;;6.78;2.70;;;32.90;1.00;;;;;;5016238;28;20176;-75
2022/07/11 10:34:06;;;;;;;6.03;3.10;;;32.30;1.00;;;;;;5028591;28;20208;-75
2022/07/11 10:36:34;;;;;;;4.72;2.88;;;32.00;1.00;;;;;;5012422;28;20537;-75
2022/07/11 10:39:16;;;;;;;10.20;3.13;;;32.50;1.00;;;;;;5000336;28;20184;-76
2022/07/11 10:41:42;;;;;;;4.68;3.10;;;33.20;1.00;;;;;;5008149;28;20181;-76
2022/07/11 10:44:08;;;;;;;5.07;2.83;;;33.80;1.00;;;;;;5008581;28;20687;-76
2022/07/11 10:46:35;;;;;;;4.13;3.10;;;34.60;1.00;;;;;;5008011;28;20244;-76
2022/07/11 10:49:05;;;;;;;5.55;3.20;;;34.20;1.00;;;;;;5008409;28;20182;-75
2022/07/11 10:51:49;;;;;;;5.32;3.25;;;34.30;1.00;;;;;;5006888;28;20265;-75
2022/07/11 10:54:42;;;;;;;4.85;3.17;;;34.60;1.00;;;;;;5008545;28;20232;-75
2022/07/11 10:57:35;;;;;;;5.53;3.10;;;36.00;1.00;;;;;;5008165;28;20272;-76
2022/07/11 11:00:04;;;;;;;4.95;3.40;;;37.20;1.00;;;;;;5020182;28;20169;-76
2022/07/11 11:02:31;;;;;;;4.38;2.67;;;37.70;1.00;;;;;;5026814;28;20698;-76
2022/07/11 11:04:58;;;;;;;5.40;2.75;;;37.30;1.00;;;;;;5028870;28;20252;-77
2022/07/11 11:07:43;;;;;;;4.95;3.00;;;36.00;1.00;;;;;;5020060;28;20534;-75
2022/07/11 11:10:17;;;;;;;5.35;2.75;;;35.50;1.00;;;;;;5010189;28;20201;-76
2022/07/11 11:13:11;;;;;;;12.80;2.95;;;35.10;1.00;;;;;;5008947;28;20173;-76
2022/07/11 11:15:41;;;;;;;12.25;2.83;;;34.80;1.00;;;;;;5010297;28;20181;-78
2022/07/11 11:18:22;;;;;;;3.28;2.50;;;34.20;1.00;;;;;;5009243;28;20672;-76
2022/07/11 11:21:09;;;;;;;5.68;2.45;;;34.40;1.00;;;;;;4990000;28;20565;-76
2022/07/11 11:23:44;;;;;;;6.82;2.58;;;34.20;1.00;;;;;;5008824;28;20174;-75
2022/07/11 11:26:14;;;;;;;7.88;2.42;;;34.50;1.00;;;;;;4991555;28;20276;-76
2022/07/11 11:29:01;;;;;;;3.20;2.25;;;35.20;1.00;;;;;;5009964;28;20232;-75
2022/07/11 11:31:29;;;;;;;4.05;2.25;;;36.60;1.00;;;;;;5009899;28;20169;-76
2022/07/11 11:33:56;;;;;;;7.50;2.50;;;38.30;1.00;;;;;;5028835;28;20235;-75
2022/07/11 11:36:24;;;;;;;3.55;2.28;;;37.90;1.00;;;;;;5029065;28;20189;-76
2022/07/11 11:38:50;;;;;;;4.85;2.05;;;38.00;1.00;;;;;;5010529;28;20176;-76
2022/07/11 11:41:23;;;;;;;3.72;2.10;;;37.50;1.00;;;;;;5028105;28;20193;-76
2022/07/11 11:43:50;;;;;;;4.35;2.20;;;37.70;1.00;;;;;;5007037;28;20530;-76
2022/07/11 11:46:15;;;;;;;8.43;2.40;;;36.30;1.00;;;;;;5008597;28;20200;-76
2022/07/11 11:48:45;;;;;;;3.92;2.08;;;36.10;1.00;;;;;;5008490;28;20182;-76
2022/07/11 11:51:16;;;;;;;5.15;2.38;;;35.10;1.00;;;;;;5008009;28;20171;-76
2022/07/11 11:53:44;;;;;;;4.15;2.40;;;34.70;1.00;;;;;;4990601;28;20260;-76
2022/07/11 11:56:28;;;;;;;4.22;2.50;;;33.60;1.00;;;;;;5010019;28;20597;-76
2022/07/11 11:58:56;;;;;;;5.07;2.60;;;30.90;1.00;;;;;;5015393;28;20228;-76
2022/07/11 12:01:28;;;;;;;5.53;2.50;;;34.20;1.00;;;;;;5008572;28;20665;-76
2022/07/11 12:03:57;;;;;;;5.38;2.75;;;35.30;1.00;;;;;;5011733;28;20196;-75
2022/07/11 12:06:26;;;;;;;3.83;2.20;;;35.00;1.00;;;;;;5011671;28;20289;-76
2022/07/11 12:08:52;;;;;;;3.45;2.47;;;34.60;1.00;;;;;;4992439;28;20174;-76
2022/07/11 12:11:18;;;;;;;6.18;2.53;;;34.50;1.00;;;;;;4991898;28;20715;-75
2022/07/11 12:13:44;;;;;;;14.15;2.80;;;35.00;1.00;;;;;;4992437;28;20198;-76
2022/07/11 12:19:03;;;;;;;4.70;2.65;;;36.10;1.00;;;;;;4992451;28;20522;-76
2022/07/11 12:21:30;;;;;;;8.68;2.70;;;37.00;1.00;;;;;;4990944;28;20162;-76
2022/07/11 12:23:59;;;;;;;5.05;2.80;;;37.50;1.00;;;;;;4974488;28;20201;-76
2022/07/11 12:26:28;;;;;;;8.65;2.70;;;37.70;1.00;;;;;;4993084;28;20247;-77
2022/07/11 12:29:04;;;;;;;2.70;2.15;;;39.10;1.00;;;;;;5011771;28;20256;-76
2022/07/11 12:31:40;;;;;;;5.60;2.47;;;40.50;1.00;;;;;;5023839;28;20169;-76
2022/07/11 12:34:05;;;;;;;7.57;2.47;;;39.20;1.00;;;;;;5029640;28;20213;-77
2022/07/11 12:36:34;;;;;;;5.78;2.70;;;37.60;1.00;;;;;;5003886;28;20194;-76
2022/07/11 12:38:59;;;;;;;3.65;2.22;;;36.70;1.00;;;;;;5011214;28;20676;-76
2022/07/11 12:41:25;;;;;;;7.07;2.83;;;35.10;1.00;;;;;;5010779;28;20170;-77
2022/07/11 12:46:37;;;;;;;5.90;2.95;;;34.00;1.00;;;;;;5011018;28;20300;-75
2022/07/11 12:49:04;;;;;;;4.70;2.70;;;33.80;1.00;;;;;;5009723;28;20180;-76
2022/07/11 12:51:37;;;;;;;7.38;3.25;;;34.00;1.00;;;;;;4987990;28;20217;-76
2022/07/11 12:54:05;;;;;;;4.78;2.90;;;33.30;1.00;;;;;;5010870;28;20201;-76
2022/07/11 12:56:31;;;;;;;4.80;3.17;;;32.40;1.00;;;;;;4993046;28;20665;-77
2022/07/11 12:58:57;;;;;;;4.82;3.00;;;32.00;1.00;;;;;;5013735;28;20174;-76
2022/07/11 13:01:23;;;;;;;5.38;2.72;;;32.20;1.00;;;;;;5029205;28;20165;-76
2022/07/11 13:03:49;;;;;;;4.97;3.60;;;32.90;1.00;;;;;;5012296;28;20316;-75
2022/07/11 13:06:15;;;;;;;6.60;3.67;;;35.50;1.00;;;;;;5009790;28;20209;-75
2022/07/11 13:08:48;;;;;;;5.40;2.90;;;35.80;1.00;;;;;;4990923;28;20192;-75
2022/07/11 13:11:24;;;;;;;3.95;2.55;;;37.20;1.00;;;;;;5009740;28;20499;-75
2022/07/11 13:13:50;;;;;;;8.70;2.70;;;;;;;;;;4992594;28;20536;-75
2022/07/11 13:16:17;;;;;;;3.17;2.65;;;35.20;1.00;;;;;;5009971;28;20174;-76
2022/07/11 13:18:43;;;;;;;5.00;2.53;;;35.10;1.00;;;;;;5009649;28;20637;-75